Time;durP1;ratioP1;P1;durP2;ratioP2;P2;SDS_P1;SDS_P2;PMS_P1;PMS_P2;Temp;Humidity;BMP_temperature;BMP_pressure;BME280_temperature;BME280_humidity;BME280_pressure;Samples;Min_cycle;Max_cycle;Signal;HPM_P1;HPM_P2
2020/12/09 00:01:13;;;;;;;29.10;21.65;;;17.50;49.00;;;;;;4981937;28;20185;-61
2020/12/09 00:03:40;;;;;;;28.52;21.90;;;17.70;48.80;;;;;;4983886;28;20208;-61
2020/12/09 00:06:05;;;;;;;27.73;21.02;;;17.70;48.50;;;;;;4983726;28;20185;-61
2020/12/09 00:08:31;;;;;;;28.98;22.60;;;17.60;48.60;;;;;;4983069;28;20645;-60
2020/12/09 00:10:57;;;;;;;30.08;22.27;;;17.60;48.60;;;;;;4981578;28;20186;-60
2020/12/09 00:13:23;;;;;;;29.60;22.40;;;17.60;48.60;;;;;;4975290;28;20780;-61
2020/12/09 00:15:49;;;;;;;29.77;21.77;;;17.60;48.30;;;;;;4982617;28;20201;-61
2020/12/09 00:18:14;;;;;;;28.67;22.10;;;17.60;48.20;;;;;;4982039;28;20201;-61
2020/12/09 00:20:40;;;;;;;29.90;23.40;;;17.60;48.30;;;;;;4982346;28;20200;-60
2020/12/09 00:23:06;;;;;;;27.20;21.23;;;17.30;48.40;;;;;;4981435;28;20188;-61
2020/12/09 00:25:31;;;;;;;28.05;21.83;;;17.50;48.70;;;;;;4981917;28;20858;-61
2020/12/09 00:27:57;;;;;;;28.23;22.23;;;17.50;48.80;;;;;;4982396;28;20299;-61
2020/12/09 00:30:23;;;;;;;31.02;22.80;;;17.40;48.10;;;;;;4982107;28;20189;-61
2020/12/09 00:32:48;;;;;;;29.33;21.73;;;17.40;48.60;;;;;;4983001;28;20748;-61
2020/12/09 00:35:14;;;;;;;28.52;21.52;;;17.40;48.60;;;;;;4982631;28;20669;-61
2020/12/09 00:37:40;;;;;;;28.13;21.35;;;17.40;48.20;;;;;;4983099;28;20348;-61
2020/12/09 00:40:06;;;;;;;28.23;21.02;;;17.50;48.40;;;;;;4983516;28;20189;-61
2020/12/09 00:42:33;;;;;;;30.60;21.95;;;17.50;48.10;;;;;;4983307;28;20182;-61
2020/12/09 00:44:59;;;;;;;25.73;21.05;;;17.40;47.70;;;;;;4965470;28;20740;-61
2020/12/09 00:47:25;;;;;;;29.48;21.30;;;17.30;48.20;;;;;;4983006;28;20185;-61
2020/12/09 00:52:35;;;;;;;28.88;21.30;;;17.20;48.70;;;;;;4967395;28;20198;-61
2020/12/09 00:55:01;;;;;;;27.85;21.63;;;17.30;48.50;;;;;;4980186;28;20280;-61
2020/12/09 00:57:27;;;;;;;27.95;21.10;;;17.20;47.20;;;;;;4968850;28;20265;-61
2020/12/09 00:59:53;;;;;;;28.67;21.00;;;17.30;48.30;;;;;;4987872;28;20689;-61
2020/12/09 01:02:21;;;;;;;28.83;20.38;;;17.30;48.30;;;;;;4969621;28;20226;-61
2020/12/09 01:04:49;;;;;;;28.13;21.15;;;17.20;48.40;;;;;;4993646;28;20205;-61
2020/12/09 01:07:19;;;;;;;27.33;20.30;;;17.20;48.50;;;;;;4981592;28;20203;-61
2020/12/09 01:09:48;;;;;;;28.08;20.45;;;17.10;47.70;;;;;;4966582;28;20194;-61
2020/12/09 01:12:13;;;;;;;30.33;21.38;;;17.00;48.30;;;;;;4982086;28;20716;-61
2020/12/09 01:14:41;;;;;;;27.83;21.17;;;17.00;48.60;;;;;;4966582;28;20218;-61
2020/12/09 01:17:08;;;;;;;27.23;21.30;;;17.00;48.40;;;;;;4981141;28;20312;-60
2020/12/09 01:19:33;;;;;;;28.38;20.55;;;17.10;48.30;;;;;;4982644;28;20202;-61
2020/12/09 01:22:04;;;;;;;26.80;21.20;;;17.00;48.60;;;;;;4982217;28;20231;-61
2020/12/09 01:24:29;;;;;;;29.80;21.13;;;17.00;48.20;;;;;;4981976;28;20224;-61
2020/12/09 01:26:55;;;;;;;25.75;20.08;;;17.00;48.40;;;;;;4982718;28;20189;-61
2020/12/09 01:29:21;;;;;;;29.08;20.17;;;17.00;48.20;;;;;;4981517;28;20224;-61
2020/12/09 01:31:47;;;;;;;26.45;20.20;;;17.00;48.50;;;;;;4982802;28;20190;-61
2020/12/09 01:34:16;;;;;;;28.80;21.33;;;17.00;48.30;;;;;;4965074;28;20209;-61
2020/12/09 01:36:42;;;;;;;25.83;19.63;;;17.10;48.10;;;;;;4982057;28;20268;-61
2020/12/09 01:39:08;;;;;;;27.50;20.88;;;17.00;48.20;;;;;;4982089;28;20217;-61
2020/12/09 01:41:34;;;;;;;26.83;19.77;;;17.00;48.30;;;;;;4982025;28;20181;-60
2020/12/09 01:43:59;;;;;;;28.10;19.85;;;16.90;48.10;;;;;;4981675;28;20224;-61
2020/12/09 01:46:29;;;;;;;28.63;20.40;;;16.90;48.20;;;;;;4982563;28;20209;-60
2020/12/09 01:48:56;;;;;;;26.65;19.73;;;16.90;48.30;;;;;;4981840;28;20201;-61
2020/12/09 01:51:24;;;;;;;27.35;19.95;;;16.90;48.10;;;;;;4982119;28;20193;-61
2020/12/09 01:53:55;;;;;;;27.95;20.63;;;17.00;48.00;;;;;;4981794;28;20222;-61
2020/12/09 01:56:21;;;;;;;27.02;20.13;;;17.00;47.90;;;;;;4982089;28;20280;-61
2020/12/09 01:58:49;;;;;;;27.00;19.95;;;17.00;47.90;;;;;;4981143;28;20201;-61
2020/12/09 02:01:15;;;;;;;27.42;20.08;;;17.00;48.00;;;;;;4981867;28;20205;-61
2020/12/09 02:03:41;;;;;;;26.20;20.10;;;16.90;48.00;;;;;;4981832;28;21105;-61
2020/12/09 02:06:07;;;;;;;30.15;20.35;;;17.00;47.90;;;;;;4981361;28;20195;-61
2020/12/09 02:08:33;;;;;;;26.58;20.27;;;17.00;48.00;;;;;;4982236;28;20554;-61
2020/12/09 02:11:03;;;;;;;30.88;20.85;;;17.00;47.90;;;;;;4981713;28;20196;-64
2020/12/09 02:13:30;;;;;;;33.30;20.70;;;16.90;47.90;;;;;;4982101;28;20206;-65
2020/12/09 02:16:00;;;;;;;28.80;20.25;;;17.00;47.90;;;;;;4982325;28;20213;-64
2020/12/09 02:18:27;;;;;;;28.08;20.63;;;16.90;47.90;;;;;;4981602;28;20288;-64
2020/12/09 02:20:53;;;;;;;27.85;20.58;;;16.90;47.80;;;;;;4964049;28;20202;-64
2020/12/09 02:23:19;;;;;;;26.40;20.15;;;17.00;47.90;;;;;;4973783;28;20289;-64
2020/12/09 02:25:46;;;;;;;27.15;19.10;;;17.00;47.60;;;;;;4981573;28;20347;-64
2020/12/09 02:28:12;;;;;;;24.33;17.52;;;17.00;47.80;;;;;;4981636;28;20186;-64
2020/12/09 02:30:38;;;;;;;25.92;16.42;;;17.00;47.70;;;;;;4981673;28;20196;-64
2020/12/09 02:33:03;;;;;;;24.50;16.17;;;17.00;47.60;;;;;;4973805;28;21088;-64
2020/12/09 02:35:29;;;;;;;26.67;16.50;;;16.90;47.50;;;;;;4983281;28;20225;-65
2020/12/09 02:37:55;;;;;;;25.77;16.45;;;16.90;47.70;;;;;;4977478;28;20202;-64
2020/12/09 02:40:21;;;;;;;25.52;17.52;;;16.90;47.70;;;;;;4985028;28;20193;-64
2020/12/09 02:42:47;;;;;;;29.77;20.70;;;17.00;47.50;;;;;;4984980;28;20261;-64
2020/12/09 02:45:14;;;;;;;27.48;19.70;;;16.90;47.70;;;;;;4984863;28;20320;-65
2020/12/09 02:47:40;;;;;;;26.42;20.13;;;16.80;48.00;;;;;;4984804;28;20193;-64
2020/12/09 02:50:05;;;;;;;26.83;19.25;;;16.80;47.80;;;;;;4977042;28;20646;-64
2020/12/09 02:52:31;;;;;;;25.67;19.23;;;16.80;48.00;;;;;;4984611;28;20240;-64
2020/12/09 02:54:57;;;;;;;26.40;19.08;;;16.80;48.00;;;;;;4985286;28;20205;-64
2020/12/09 02:57:23;;;;;;;28.10;20.15;;;16.80;47.70;;;;;;4984958;28;20209;-64
2020/12/09 02:59:49;;;;;;;27.35;19.15;;;16.80;47.90;;;;;;4977001;28;20194;-64
2020/12/09 03:02:15;;;;;;;26.33;19.50;;;16.80;47.70;;;;;;4976422;28;20240;-64
2020/12/09 03:04:41;;;;;;;28.38;20.17;;;16.80;48.00;;;;;;4984557;28;20229;-65
2020/12/09 03:07:06;;;;;;;28.05;19.85;;;16.80;48.00;;;;;;4980929;28;20185;-64
2020/12/09 03:09:32;;;;;;;25.60;19.75;;;16.80;48.50;;;;;;4976592;28;20189;-64
2020/12/09 03:11:58;;;;;;;24.73;18.65;;;16.80;47.90;;;;;;4976336;28;20185;-64
2020/12/09 03:14:23;;;;;;;29.77;20.40;;;16.80;48.00;;;;;;4984221;28;20221;-64
2020/12/09 03:16:49;;;;;;;27.85;19.27;;;16.80;47.60;;;;;;4976164;28;20647;-64
2020/12/09 03:19:15;;;;;;;25.05;18.98;;;16.80;47.80;;;;;;4984126;28;20348;-64
2020/12/09 03:21:41;;;;;;;29.67;20.58;;;16.70;47.60;;;;;;4984210;28;20281;-64
2020/12/09 03:24:10;;;;;;;25.55;19.90;;;16.80;47.60;;;;;;4974627;28;20310;-65
2020/12/09 03:26:36;;;;;;;26.63;18.75;;;16.80;47.60;;;;;;4978612;28;20186;-64
2020/12/09 03:29:03;;;;;;;23.98;18.15;;;16.80;47.70;;;;;;4980607;28;20193;-64
2020/12/09 03:31:28;;;;;;;26.77;19.25;;;16.80;47.70;;;;;;4983846;28;20200;-64
2020/12/09 03:33:54;;;;;;;26.20;19.73;;;16.70;47.70;;;;;;4983616;28;20213;-64
2020/12/09 03:36:20;;;;;;;24.60;19.58;;;16.70;48.00;;;;;;4975180;28;20185;-64
2020/12/09 03:38:45;;;;;;;27.70;19.55;;;16.70;48.10;;;;;;4967223;28;20210;-65
2020/12/09 03:41:11;;;;;;;26.38;19.52;;;16.80;47.80;;;;;;4982258;28;20261;-64
2020/12/09 03:43:37;;;;;;;23.90;18.25;;;16.70;47.80;;;;;;4983686;28;20209;-64
2020/12/09 03:46:02;;;;;;;26.83;19.27;;;16.80;47.80;;;;;;4965416;28;20186;-64
2020/12/09 03:48:28;;;;;;;26.63;18.55;;;16.80;47.80;;;;;;4975788;28;20651;-64
2020/12/09 03:50:54;;;;;;;25.33;18.65;;;16.70;47.70;;;;;;4983005;28;20261;-64
2020/12/09 03:53:21;;;;;;;25.45;18.38;;;16.70;47.80;;;;;;4975599;28;20959;-65
2020/12/09 03:55:49;;;;;;;25.98;19.42;;;16.70;47.70;;;;;;4976102;28;20297;-64
2020/12/09 03:58:15;;;;;;;24.10;18.85;;;16.60;47.80;;;;;;4981199;28;20216;-64
2020/12/09 04:00:42;;;;;;;23.67;19.17;;;16.70;47.80;;;;;;4977384;28;20183;-64
2020/12/09 04:03:08;;;;;;;26.27;19.20;;;16.60;47.90;;;;;;4982724;28;20271;-64
2020/12/09 04:05:34;;;;;;;26.70;19.92;;;16.60;48.00;;;;;;4983613;28;20206;-64
2020/12/09 04:08:00;;;;;;;24.50;19.17;;;16.70;47.80;;;;;;4975431;28;20197;-65
2020/12/09 04:10:26;;;;;;;24.42;19.05;;;16.60;48.00;;;;;;4977354;28;20193;-65
2020/12/09 04:12:52;;;;;;;26.00;19.50;;;16.60;48.00;;;;;;4984568;28;20197;-64
2020/12/09 04:15:18;;;;;;;25.88;20.10;;;16.70;48.30;;;;;;4976576;28;20225;-65
2020/12/09 04:17:44;;;;;;;27.67;19.23;;;16.60;47.80;;;;;;4983899;28;20227;-64
2020/12/09 04:20:09;;;;;;;28.35;19.65;;;16.60;47.90;;;;;;4975652;28;20178;-65
2020/12/09 04:22:35;;;;;;;26.77;19.77;;;16.50;47.90;;;;;;4969558;28;20194;-64
2020/12/09 04:25:02;;;;;;;27.15;19.73;;;16.60;48.10;;;;;;4982296;28;20240;-64
2020/12/09 04:27:28;;;;;;;23.38;18.75;;;16.50;47.80;;;;;;4983823;28;20185;-64
2020/12/09 04:29:53;;;;;;;27.20;20.17;;;16.60;47.90;;;;;;4982952;28;20193;-63
2020/12/09 04:32:19;;;;;;;26.10;19.52;;;16.60;48.00;;;;;;4975785;28;20190;-63
2020/12/09 04:34:45;;;;;;;25.98;19.35;;;16.50;47.80;;;;;;4981975;28;20257;-64
2020/12/09 04:37:12;;;;;;;25.25;18.77;;;16.50;48.00;;;;;;4982817;28;20217;-64
2020/12/09 04:39:37;;;;;;;24.05;19.00;;;16.50;48.00;;;;;;4982430;28;20189;-64
2020/12/09 04:42:04;;;;;;;27.67;19.25;;;16.40;48.00;;;;;;4982386;28;20618;-64
2020/12/09 04:44:30;;;;;;;26.25;18.98;;;16.50;48.10;;;;;;4982465;28;20239;-64
2020/12/09 04:47:02;;;;;;;26.52;19.83;;;16.50;48.30;;;;;;4982226;28;20202;-64
2020/12/09 04:49:39;;;;;;;26.83;20.08;;;16.50;47.60;;;;;;4981894;28;20194;-64
2020/12/09 04:52:39;;;;;;;26.58;19.75;;;16.50;48.00;;;;;;4982444;28;20283;-65
2020/12/09 04:55:10;;;;;;;24.92;19.10;;;16.40;47.50;;;;;;4981320;28;20209;-63
2020/12/09 04:57:53;;;;;;;26.42;20.35;;;16.40;48.20;;;;;;4976220;28;20217;-65
2020/12/09 05:00:19;;;;;;;26.75;20.00;;;16.40;47.80;;;;;;4982694;28;20592;-64
2020/12/09 05:02:56;;;;;;;28.42;20.83;;;16.40;48.30;;;;;;4975124;28;20193;-66
2020/12/09 05:05:24;;;;;;;27.58;20.40;;;16.40;48.40;;;;;;4978460;28;20221;-65
2020/12/09 05:07:51;;;;;;;27.67;20.25;;;16.40;48.10;;;;;;4979094;28;20181;-64
2020/12/09 05:10:19;;;;;;;27.38;21.05;;;16.30;48.30;;;;;;4982118;28;20189;-64
2020/12/09 05:12:47;;;;;;;29.25;20.90;;;16.40;48.40;;;;;;4972742;28;20194;-64
2020/12/09 05:15:18;;;;;;;25.98;20.05;;;16.30;48.50;;;;;;4980289;28;20225;-64
2020/12/09 05:18:10;;;;;;;26.77;19.48;;;16.30;48.80;;;;;;4974383;28;20262;-64
2020/12/09 05:20:38;;;;;;;26.60;18.95;;;16.30;48.80;;;;;;4975287;28;20205;-65
2020/12/09 05:23:07;;;;;;;28.40;19.67;;;16.30;49.50;;;;;;4982452;28;20272;-64
2020/12/09 05:25:36;;;;;;;27.25;19.92;;;16.40;49.60;;;;;;4980797;28;20630;-71
2020/12/09 05:28:03;;;;;;;46.05;27.70;;;16.50;50.50;;;;;;4979562;28;20198;-64
2020/12/09 05:30:43;;;;;;;41.10;29.60;;;16.60;50.30;;;;;;4981902;28;20197;-64
2020/12/09 05:33:11;;;;;;;46.50;31.48;;;16.70;50.10;;;;;;4974404;28;20189;-64
2020/12/09 05:35:38;;;;;;;57.63;39.35;;;16.70;49.70;;;;;;4981864;28;20221;-64
2020/12/09 05:38:18;;;;;;;65.20;42.85;;;16.70;49.10;;;;;;4974199;28;20220;-64
2020/12/09 05:40:45;;;;;;;59.95;44.92;;;16.70;48.60;;;;;;4981730;28;20194;-66
2020/12/09 05:43:11;;;;;;;60.65;43.83;;;16.70;48.10;;;;;;4975056;28;20625;-64
2020/12/09 05:45:38;;;;;;;67.88;47.42;;;16.70;48.10;;;;;;4981818;28;20308;-64
2020/12/09 05:48:17;;;;;;;66.82;46.08;;;16.60;48.40;;;;;;4978616;28;20748;-64
2020/12/09 05:50:52;;;;;;;62.10;44.22;;;16.80;48.80;;;;;;4980265;28;20292;-64
2020/12/09 05:53:19;;;;;;;62.58;43.03;;;16.80;48.80;;;;;;4972691;28;20243;-64
2020/12/09 05:55:46;;;;;;;56.70;42.15;;;16.90;48.80;;;;;;4981963;28;20182;-63
2020/12/09 05:58:19;;;;;;;55.80;40.83;;;16.90;48.90;;;;;;4981028;28;20999;-67
2020/12/09 06:01:14;;;;;;;54.83;40.38;;;17.10;49.40;;;;;;4981497;28;20186;-64
2020/12/09 06:03:43;;;;;;;56.72;40.05;;;17.30;49.50;;;;;;4972156;28;20229;-64
2020/12/09 06:06:19;;;;;;;54.97;40.17;;;17.40;48.70;;;;;;4980247;28;20181;-64
2020/12/09 06:08:52;;;;;;;53.15;38.95;;;17.30;48.60;;;;;;4980925;28;20938;-64
2020/12/09 06:11:24;;;;;;;56.15;38.50;;;17.40;48.10;;;;;;4984065;28;20219;-64
2020/12/09 06:13:50;;;;;;;56.40;38.92;;;17.50;48.00;;;;;;4984513;28;20267;-64
2020/12/09 06:16:18;;;;;;;53.47;39.30;;;17.50;48.20;;;;;;4985084;28;20280;-65
2020/12/09 06:18:46;;;;;;;57.42;38.58;;;17.50;47.60;;;;;;4983901;28;20260;-65
2020/12/09 06:21:12;;;;;;;52.28;37.22;;;17.50;47.70;;;;;;4982702;28;20181;-64
2020/12/09 06:23:38;;;;;;;51.13;37.63;;;17.50;48.30;;;;;;4984676;28;20870;-65
2020/12/09 06:26:05;;;;;;;46.45;35.15;;;17.50;48.10;;;;;;4983545;28;20193;-64
2020/12/09 06:28:35;;;;;;;47.42;35.38;;;17.60;48.40;;;;;;4966216;28;20233;-64
2020/12/09 06:31:12;;;;;;;50.08;35.63;;;17.60;48.10;;;;;;4984390;28;20216;-65
2020/12/09 06:33:41;;;;;;;47.35;34.28;;;17.60;47.80;;;;;;4984515;28;20241;-64
2020/12/09 06:36:17;;;;;;;45.47;34.47;;;17.70;47.90;;;;;;4976126;28;20178;-64
2020/12/09 06:39:05;;;;;;;48.15;34.10;;;17.80;47.80;;;;;;4984403;28;20240;-65
2020/12/09 06:41:35;;;;;;;45.53;33.75;;;17.80;48.20;;;;;;4988990;28;20186;-64
2020/12/09 06:44:06;;;;;;;40.80;31.98;;;17.80;47.90;;;;;;4981299;28;20213;-65
2020/12/09 06:46:46;;;;;;;41.65;32.92;;;17.90;47.70;;;;;;4984340;28;20400;-65
2020/12/09 06:49:27;;;;;;;41.33;31.77;;;17.90;48.30;;;;;;4983373;28;20189;-64
2020/12/09 06:51:54;;;;;;;41.47;31.52;;;17.80;48.00;;;;;;4984497;28;20193;-73
2020/12/09 06:54:19;;;;;;;38.50;29.75;;;17.80;48.00;;;;;;4967001;28;20735;-66
2020/12/09 06:57:20;;;;;;;37.42;29.27;;;18.00;47.80;;;;;;4981978;28;20292;-65
2020/12/09 06:59:48;;;;;;;42.78;29.83;;;18.00;47.70;;;;;;4979667;28;20342;-64
2020/12/09 07:02:26;;;;;;;42.92;30.40;;;18.00;47.80;;;;;;4983770;28;20182;-64
2020/12/09 07:04:54;;;;;;;40.72;30.20;;;17.80;47.30;;;;;;4983887;28;20222;-64
2020/12/09 07:07:36;;;;;;;43.00;30.55;;;17.90;47.20;;;;;;4983901;28;20185;-64
2020/12/09 07:10:18;;;;;;;39.92;29.90;;;17.80;47.00;;;;;;4983444;28;20194;-64
2020/12/09 07:12:48;;;;;;;44.42;31.70;;;18.00;47.00;;;;;;4983579;28;20186;-68
2020/12/09 07:15:14;;;;;;;38.72;31.10;;;17.80;46.60;;;;;;4983152;28;20225;-64
2020/12/09 07:17:40;;;;;;;38.35;29.80;;;17.90;47.20;;;;;;4980140;28;20205;-63
2020/12/09 07:20:08;;;;;;;38.47;29.92;;;17.90;48.00;;;;;;4982681;28;20875;-63
2020/12/09 07:22:34;;;;;;;39.95;29.23;;;17.80;48.00;;;;;;4982090;28;20323;-64
2020/12/09 07:25:00;;;;;;;42.85;28.70;;;17.90;48.10;;;;;;4983248;28;20296;-63
2020/12/09 07:27:27;;;;;;;39.88;28.50;;;17.80;48.10;;;;;;4982866;28;20244;-63
2020/12/09 07:29:56;;;;;;;40.53;27.95;;;17.90;48.20;;;;;;4982912;28;20201;-63
2020/12/09 07:32:23;;;;;;;38.10;28.00;;;17.80;47.90;;;;;;4961648;28;20202;-64
2020/12/09 07:34:57;;;;;;;39.05;28.15;;;17.90;48.20;;;;;;4978515;28;20202;-63
2020/12/09 07:37:25;;;;;;;36.10;26.92;;;17.70;48.00;;;;;;4975335;28;20224;-65
2020/12/09 07:39:53;;;;;;;35.67;27.02;;;17.80;48.00;;;;;;4982482;28;20257;-63
2020/12/09 07:42:22;;;;;;;36.42;28.58;;;17.90;47.30;;;;;;4982887;28;20602;-63
2020/12/09 07:44:50;;;;;;;39.97;27.70;;;18.00;47.30;;;;;;4981109;28;20648;-63
2020/12/09 07:47:30;;;;;;;39.38;27.88;;;17.90;46.90;;;;;;4982505;28;20186;-64
2020/12/09 07:50:03;;;;;;;39.00;28.33;;;17.70;46.40;;;;;;4982822;28;20213;-63
2020/12/09 07:52:31;;;;;;;36.80;27.00;;;17.70;46.60;;;;;;4973635;28;20198;-63
2020/12/09 07:55:02;;;;;;;39.65;27.67;;;17.60;46.70;;;;;;4981098;28;20220;-66
2020/12/09 07:57:36;;;;;;;38.75;28.77;;;17.70;46.70;;;;;;4982461;28;21243;-63
2020/12/09 08:00:06;;;;;;;39.00;28.27;;;17.50;45.90;;;;;;4981758;28;20900;-64
2020/12/09 08:02:39;;;;;;;40.83;27.55;;;17.30;46.60;;;;;;4976267;28;20217;-63
2020/12/09 08:05:08;;;;;;;36.60;26.58;;;17.40;47.50;;;;;;4974697;28;20213;-63
2020/12/09 08:07:43;;;;;;;38.08;26.48;;;17.70;47.60;;;;;;4982307;28;20189;-63
2020/12/09 08:10:11;;;;;;;35.30;26.40;;;17.70;47.50;;;;;;4981872;28;20689;-63
2020/12/09 08:12:40;;;;;;;40.00;26.70;;;17.70;47.50;;;;;;4982787;28;20236;-63
2020/12/09 08:15:07;;;;;;;37.88;25.58;;;17.70;48.10;;;;;;4982425;28;20233;-63
2020/12/09 08:17:33;;;;;;;35.50;25.15;;;17.80;47.90;;;;;;4981011;28;20677;-63
2020/12/09 08:20:06;;;;;;;35.85;26.02;;;17.80;47.60;;;;;;4982551;28;20276;-63
2020/12/09 08:22:48;;;;;;;35.08;24.40;;;17.80;47.50;;;;;;4982933;28;20181;-63
2020/12/09 08:25:14;;;;;;;32.80;25.55;;;18.10;47.40;;;;;;4973720;28;20213;-63
2020/12/09 08:27:44;;;;;;;35.35;26.23;;;18.00;46.60;;;;;;4982753;28;20196;-63
2020/12/09 08:30:26;;;;;;;35.67;26.02;;;17.90;46.60;;;;;;4982983;28;20202;-63
2020/12/09 08:32:59;;;;;;;36.10;27.55;;;17.90;47.00;;;;;;4981686;28;20209;-63
2020/12/09 08:35:26;;;;;;;38.20;27.92;;;17.80;47.10;;;;;;4975744;28;20274;-63
2020/12/09 08:37:52;;;;;;;38.33;28.05;;;17.80;46.80;;;;;;4982336;28;20296;-63
2020/12/09 08:40:18;;;;;;;40.53;27.85;;;17.80;47.00;;;;;;4981694;28;20195;-62
2020/12/09 08:42:58;;;;;;;40.50;27.52;;;17.40;46.90;;;;;;4981635;28;20711;-62
2020/12/09 08:45:25;;;;;;;39.60;27.40;;;16.90;49.40;;;;;;4981495;28;20205;-62
2020/12/09 08:47:51;;;;;;;37.83;26.42;;;16.70;50.20;;;;;;4981569;28;20188;-62
2020/12/09 08:50:17;;;;;;;35.38;25.50;;;16.50;50.50;;;;;;4980720;28;20990;-63
2020/12/09 08:52:43;;;;;;;38.50;25.17;;;16.40;51.00;;;;;;4981261;28;20204;-62
2020/12/09 08:55:09;;;;;;;37.15;22.08;;;16.40;51.10;;;;;;4980522;28;20210;-63
2020/12/09 08:57:34;;;;;;;34.80;21.30;;;16.40;50.70;;;;;;4980742;28;20247;-64
2020/12/09 09:00:00;;;;;;;38.05;21.40;;;16.40;50.10;;;;;;4981212;28;20208;-63
2020/12/09 09:02:26;;;;;;;37.25;20.80;;;16.30;49.40;;;;;;4981123;28;20201;-62
2020/12/09 09:04:51;;;;;;;36.35;22.88;;;16.30;49.20;;;;;;4981411;28;20276;-63
2020/12/09 09:07:17;;;;;;;36.20;21.52;;;16.30;49.30;;;;;;4981693;28;20224;-64
2020/12/09 09:09:43;;;;;;;36.35;20.77;;;16.20;49.90;;;;;;4980118;28;20189;-62
2020/12/09 09:12:09;;;;;;;38.30;21.80;;;16.20;50.60;;;;;;4977211;28;20181;-62
2020/12/09 09:14:35;;;;;;;36.50;21.27;;;16.20;50.40;;;;;;4980912;28;20217;-62
2020/12/09 09:17:01;;;;;;;36.30;21.33;;;16.20;50.70;;;;;;4981680;28;20558;-63
2020/12/09 09:19:26;;;;;;;36.97;23.23;;;16.20;50.90;;;;;;4981795;28;20313;-63
2020/12/09 09:21:53;;;;;;;35.38;22.65;;;16.20;50.90;;;;;;4980212;28;21008;-64
2020/12/09 09:24:18;;;;;;;40.05;25.25;;;16.20;50.60;;;;;;4980975;28;20625;-65
2020/12/09 09:26:44;;;;;;;39.00;24.40;;;16.10;50.60;;;;;;4981203;28;20199;-65
2020/12/09 09:29:10;;;;;;;36.27;23.03;;;16.20;51.60;;;;;;4981245;28;20210;-64
2020/12/09 09:31:36;;;;;;;39.78;26.15;;;16.20;51.30;;;;;;4981193;28;20200;-63
2020/12/09 09:34:02;;;;;;;34.88;23.60;;;16.20;51.60;;;;;;4980957;28;20990;-64
2020/12/09 09:36:32;;;;;;;34.22;21.38;;;16.20;50.80;;;;;;4981271;28;20193;-63
2020/12/09 09:38:58;;;;;;;36.70;23.38;;;16.20;51.80;;;;;;4980277;28;20260;-63
2020/12/09 09:41:23;;;;;;;37.40;24.67;;;16.10;51.30;;;;;;4981555;28;20198;-63
2020/12/09 09:43:49;;;;;;;36.25;23.23;;;16.10;50.00;;;;;;4981718;28;20211;-62
2020/12/09 09:46:15;;;;;;;40.37;21.97;;;16.10;51.20;;;;;;4983589;28;20252;-63
2020/12/09 09:48:41;;;;;;;39.90;23.93;;;16.20;50.10;;;;;;4985579;28;20860;-63
2020/12/09 09:51:10;;;;;;;36.57;21.07;;;16.00;48.30;;;;;;4982837;28;20197;-63
2020/12/09 09:53:35;;;;;;;34.42;22.13;;;16.00;50.40;;;;;;4984811;28;20211;-63
2020/12/09 09:56:01;;;;;;;34.08;21.23;;;16.10;52.10;;;;;;4984447;28;20193;-62
2020/12/09 09:58:26;;;;;;;34.07;21.33;;;16.10;50.30;;;;;;4984824;28;20648;-64
2020/12/09 10:00:52;;;;;;;36.47;21.52;;;16.10;49.30;;;;;;4984187;28;20194;-64
2020/12/09 10:03:18;;;;;;;35.23;20.93;;;16.10;48.50;;;;;;4984130;28;20203;-63
2020/12/09 10:05:44;;;;;;;33.95;21.48;;;16.00;50.80;;;;;;4981590;28;20263;-63
2020/12/09 10:08:09;;;;;;;35.33;22.08;;;16.10;50.70;;;;;;4981028;28;20244;-63
2020/12/09 10:10:35;;;;;;;34.55;22.40;;;16.10;50.30;;;;;;4982904;28;20185;-63
2020/12/09 10:13:01;;;;;;;34.45;20.23;;;16.00;50.50;;;;;;4983693;28;20186;-63
2020/12/09 10:15:26;;;;;;;36.70;22.13;;;16.10;50.10;;;;;;4983032;28;20308;-64
2020/12/09 10:17:52;;;;;;;37.73;21.13;;;16.00;47.80;;;;;;4984299;28;20228;-63
2020/12/09 10:20:18;;;;;;;38.55;20.63;;;16.10;50.00;;;;;;4981722;28;20315;-63
2020/12/09 10:22:44;;;;;;;32.50;20.50;;;16.10;49.30;;;;;;4983887;28;20197;-65
2020/12/09 10:25:09;;;;;;;39.33;24.10;;;16.10;47.70;;;;;;4983843;28;20226;-67
2020/12/09 10:27:35;;;;;;;36.13;21.13;;;15.50;45.00;;;;;;4981911;28;20200;-65
2020/12/09 10:30:02;;;;;;;42.47;21.90;;;15.20;49.10;;;;;;4983506;28;20228;-64
2020/12/09 10:32:27;;;;;;;38.90;21.90;;;15.50;49.20;;;;;;4983804;28;20212;-64
2020/12/09 10:34:53;;;;;;;33.67;19.90;;;15.70;51.80;;;;;;4982228;28;20688;-65
2020/12/09 10:37:19;;;;;;;37.00;22.07;;;15.90;51.60;;;;;;4981520;28;20207;-65
2020/12/09 10:39:46;;;;;;;37.53;21.83;;;16.00;50.00;;;;;;4981401;28;20273;-65
2020/12/09 10:42:11;;;;;;;36.93;20.60;;;16.00;49.90;;;;;;4983681;28;20815;-65
2020/12/09 10:44:37;;;;;;;33.73;21.07;;;16.10;50.80;;;;;;4981859;28;20327;-71
2020/12/09 10:47:05;;;;;;;37.57;23.07;;;16.10;50.50;;;;;;4977908;28;20197;-69
2020/12/09 10:49:33;;;;;;;45.27;24.27;;;16.10;49.70;;;;;;4980124;28;20214;-66
2020/12/09 10:51:59;;;;;;;36.63;21.07;;;16.10;49.20;;;;;;4981374;28;20212;-67
2020/12/09 10:54:25;;;;;;;45.07;22.43;;;16.20;52.10;;;;;;4980460;28;20366;-69
2020/12/09 10:56:51;;;;;;;39.60;21.83;;;16.20;53.80;;;;;;4979906;28;20199;-64
2020/12/09 10:59:17;;;;;;;43.63;21.50;;;16.20;55.10;;;;;;4981498;28;20203;-63
2020/12/09 11:01:43;;;;;;;42.65;21.38;;;16.20;52.60;;;;;;4982805;28;20192;-65
2020/12/09 11:04:10;;;;;;;46.83;23.13;;;16.20;53.70;;;;;;4982583;28;20224;-64
2020/12/09 11:06:37;;;;;;;42.47;22.40;;;16.20;52.50;;;;;;4982843;28;20268;-64
2020/12/09 11:09:08;;;;;;;40.67;22.43;;;16.20;51.40;;;;;;4956231;28;20301;-64
2020/12/09 11:11:34;;;;;;;37.67;21.67;;;16.20;50.50;;;;;;4982191;28;20531;-66
2020/12/09 11:14:00;;;;;;;39.45;20.70;;;16.20;51.00;;;;;;4981530;28;20354;-65
2020/12/09 11:16:26;;;;;;;46.03;23.67;;;16.20;50.10;;;;;;4981793;28;20296;-64
2020/12/09 11:18:52;;;;;;;37.43;21.00;;;16.20;50.00;;;;;;4980554;28;20207;-65
2020/12/09 11:21:22;;;;;;;42.73;21.40;;;16.20;50.70;;;;;;4982558;28;20199;-64
2020/12/09 11:23:50;;;;;;;44.13;22.37;;;16.20;50.50;;;;;;4982176;28;20309;-68
2020/12/09 11:26:17;;;;;;;34.47;19.87;;;16.30;49.50;;;;;;4982781;28;20185;-64
2020/12/09 11:28:43;;;;;;;37.37;21.03;;;16.20;50.90;;;;;;4982438;28;20427;-63
2020/12/09 11:31:09;;;;;;;40.60;22.90;;;16.30;50.90;;;;;;4980493;28;20215;-64
2020/12/09 11:33:35;;;;;;;38.25;22.58;;;16.30;50.40;;;;;;4982264;28;20199;-69
2020/12/09 11:36:01;;;;;;;37.67;21.40;;;16.40;50.40;;;;;;4981545;28;20190;-64
2020/12/09 11:38:29;;;;;;;42.25;21.75;;;16.30;50.10;;;;;;4983416;28;20196;-64
2020/12/09 11:41:01;;;;;;;37.65;22.63;;;16.30;49.60;;;;;;4955453;28;20244;-63
2020/12/09 11:43:28;;;;;;;46.78;23.85;;;16.40;49.70;;;;;;4964946;28;20188;-67
2020/12/09 11:45:54;;;;;;;42.93;22.50;;;16.40;48.80;;;;;;4982377;28;20223;-67
2020/12/09 11:48:20;;;;;;;46.13;23.23;;;16.30;48.80;;;;;;4989218;28;21014;-64
2020/12/09 11:50:46;;;;;;;42.50;22.87;;;16.30;48.60;;;;;;4982480;28;20221;-65
2020/12/09 11:53:11;;;;;;;38.47;21.97;;;16.20;48.90;;;;;;4981850;28;20287;-64
2020/12/09 11:55:37;;;;;;;40.63;22.17;;;16.20;48.80;;;;;;4982505;28;20301;-64
2020/12/09 11:58:04;;;;;;;40.37;21.70;;;16.20;49.40;;;;;;4981853;28;20207;-64
2020/12/09 12:00:29;;;;;;;40.27;22.40;;;16.10;48.80;;;;;;4980990;28;20189;-65
2020/12/09 12:02:55;;;;;;;42.53;22.02;;;16.20;49.90;;;;;;4982675;28;21088;-64
2020/12/09 12:05:24;;;;;;;41.23;22.37;;;16.10;50.20;;;;;;4982198;28;20296;-72
2020/12/09 12:07:50;;;;;;;39.53;21.33;;;16.10;49.70;;;;;;4981186;28;20227;-65
2020/12/09 12:10:16;;;;;;;33.93;19.33;;;16.10;50.60;;;;;;4981771;28;20193;-64
2020/12/09 12:12:42;;;;;;;34.23;20.73;;;16.20;49.70;;;;;;4982012;28;20343;-64
2020/12/09 12:15:08;;;;;;;36.08;18.80;;;16.30;50.20;;;;;;4981724;28;20272;-64
2020/12/09 12:17:34;;;;;;;34.10;19.47;;;16.40;51.00;;;;;;4981510;28;20223;-64
2020/12/09 12:19:59;;;;;;;35.73;20.67;;;16.30;49.80;;;;;;4981794;28;20191;-66
2020/12/09 12:22:25;;;;;;;36.63;20.70;;;16.30;49.60;;;;;;4980905;28;20189;-64
2020/12/09 12:24:51;;;;;;;38.87;21.63;;;16.30;50.30;;;;;;4981688;28;20212;-64
2020/12/09 12:27:17;;;;;;;37.63;21.13;;;16.30;49.80;;;;;;4981769;28;20243;-65
2020/12/09 12:29:43;;;;;;;38.53;21.17;;;16.40;50.10;;;;;;4980594;28;20550;-63
2020/12/09 12:32:08;;;;;;;35.17;19.58;;;16.40;50.90;;;;;;4981826;28;20188;-64
2020/12/09 12:34:35;;;;;;;33.70;20.63;;;16.40;50.10;;;;;;4971290;28;20946;-64